createdAt,value
2018-05-04T00:02:14.322Z,10.23
2018-05-04T00:04:43.033Z,10.68
2018-05-04T00:07:12.253Z,12.00
2018-05-04T00:09:40.986Z,15.40
2018-05-04T00:12:10.331Z,11.63
2018-05-04T00:14:39.047Z,14.50
2018-05-04T00:17:07.859Z,11.10
2018-05-04T00:19:36.577Z,10.80
2018-05-04T00:22:05.249Z,13.70
2018-05-04T00:24:33.701Z,14.27
2018-05-04T00:27:03.155Z,15.00
2018-05-04T00:29:31.956Z,11.30
2018-05-04T00:32:00.545Z,11.00
2018-05-04T00:34:28.973Z,11.03
2018-05-04T00:36:57.757Z,12.77
2018-05-04T00:39:26.339Z,10.60
2018-05-04T00:41:55.193Z,12.00
2018-05-04T00:44:23.612Z,14.13
2018-05-04T00:46:51.808Z,13.73
2018-05-04T00:49:20.519Z,14.47
2018-05-04T00:51:49.992Z,13.10
2018-05-04T00:54:23.705Z,10.57
2018-05-04T00:56:53.193Z,10.10
2018-05-04T00:59:22.393Z,13.07
2018-05-04T01:01:51.004Z,14.90
2018-05-04T01:04:19.652Z,11.23
2018-05-04T01:06:48.881Z,11.93
2018-05-04T01:09:17.379Z,14.03
2018-05-04T01:11:46.854Z,9.55
2018-05-04T01:14:16.069Z,12.17
2018-05-04T01:16:44.507Z,9.60
2018-05-04T01:19:12.905Z,13.43
2018-05-04T01:21:41.050Z,13.93
2018-05-04T01:24:09.777Z,10.00
2018-05-04T01:26:38.476Z,11.70
2018-05-04T01:29:07.980Z,12.75
2018-05-04T01:31:36.284Z,12.17
2018-05-04T01:34:04.989Z,12.25
2018-05-04T01:36:33.723Z,9.18
2018-05-04T01:39:01.941Z,14.30
2018-05-04T01:41:30.057Z,13.70
2018-05-04T01:43:58.543Z,12.73
2018-05-04T01:46:27.274Z,9.43
2018-05-04T01:48:55.662Z,9.53
2018-05-04T01:51:24.096Z,12.17
2018-05-04T01:53:52.560Z,14.33
2018-05-04T01:56:21.009Z,12.73
2018-05-04T01:58:49.624Z,10.80
2018-05-04T02:01:18.908Z,12.80
2018-05-04T02:03:48.124Z,13.87
2018-05-04T02:06:16.819Z,17.77
2018-05-04T02:08:46.317Z,8.77
2018-05-04T02:11:14.648Z,9.40
2018-05-04T02:13:43.400Z,12.02
2018-05-04T02:16:11.832Z,11.20
2018-05-04T02:18:41.084Z,11.10
2018-05-04T02:21:10.566Z,12.17
2018-05-04T02:23:40.245Z,11.15
2018-05-04T02:26:09.124Z,11.60
2018-05-04T02:28:38.320Z,12.73
2018-05-04T02:31:07.316Z,10.97
2018-05-04T02:33:35.912Z,12.13
2018-05-04T02:36:03.980Z,11.17
2018-05-04T02:38:32.369Z,16.23
2018-05-04T02:41:00.994Z,13.20
2018-05-04T02:43:29.976Z,14.90
2018-05-04T02:45:58.933Z,10.85
2018-05-04T02:48:28.429Z,10.38
2018-05-04T02:50:56.933Z,12.37
2018-05-04T02:53:26.439Z,15.20
2018-05-04T02:55:54.863Z,12.80
2018-05-04T02:58:23.714Z,17.42
2018-05-04T03:00:52.986Z,12.10
2018-05-04T03:03:21.732Z,11.43
2018-05-04T03:05:50.450Z,10.13
2018-05-04T03:08:18.942Z,12.70
2018-05-04T03:10:47.576Z,11.43
2018-05-04T03:13:16.328Z,15.15
2018-05-04T03:15:45.816Z,9.35
2018-05-04T03:18:14.191Z,11.05
2018-05-04T03:20:42.619Z,12.30
2018-05-04T03:23:11.094Z,15.63
2018-05-04T03:25:39.805Z,18.67
2018-05-04T03:28:08.315Z,12.60
2018-05-04T03:30:37.626Z,10.23
2018-05-04T03:33:07.018Z,12.80
2018-05-04T03:35:35.607Z,9.03
2018-05-04T03:38:04.033Z,12.70
2018-05-04T03:40:33.925Z,10.13
2018-05-04T03:43:02.372Z,16.87
2018-05-04T03:45:30.827Z,16.30
2018-05-04T03:47:59.320Z,10.87
2018-05-04T03:50:28.099Z,17.20
2018-05-04T03:52:56.842Z,11.47
2018-05-04T03:55:25.304Z,11.45
2018-05-04T03:58:04.756Z,12.20
2018-05-04T04:00:44.369Z,9.80
2018-05-04T04:03:24.131Z,9.23
2018-05-04T04:05:52.557Z,12.97
2018-05-04T04:08:21.018Z,13.80
2018-05-04T04:10:50.354Z,12.10
2018-05-04T04:13:19.053Z,12.07
2018-05-04T04:15:47.505Z,12.73
2018-05-04T04:18:15.951Z,10.87
2018-05-04T04:20:44.393Z,12.20
2018-05-04T04:23:12.853Z,12.73
2018-05-04T04:25:42.078Z,9.93
2018-05-04T04:28:10.527Z,13.30
2018-05-04T04:30:39.080Z,11.70
2018-05-04T04:33:07.773Z,13.47
2018-05-04T04:35:35.989Z,12.90
2018-05-04T04:38:05.495Z,11.90
2018-05-04T04:40:34.505Z,12.75
2018-05-04T04:43:03.167Z,14.27
2018-05-04T04:45:31.718Z,13.87
2018-05-04T04:48:00.415Z,16.87
2018-05-04T04:50:28.915Z,13.37
2018-05-04T04:52:57.669Z,19.85
2018-05-04T04:55:26.107Z,12.97
2018-05-04T04:57:54.817Z,11.10
2018-05-04T05:00:23.319Z,15.15
2018-05-04T05:02:52.033Z,11.43
2018-05-04T05:05:21.253Z,15.17
2018-05-04T05:07:50.584Z,12.55
2018-05-04T05:10:19.049Z,13.90
2018-05-04T05:12:47.788Z,12.07
2018-05-04T05:15:16.502Z,12.33
2018-05-04T05:17:45.968Z,10.35
2018-05-04T05:20:15.189Z,14.67
2018-05-04T05:22:43.625Z,14.43
2018-05-04T05:25:13.599Z,11.40
2018-05-04T05:27:41.856Z,14.10
2018-05-04T05:30:10.322Z,14.60
2018-05-04T05:32:38.493Z,12.83
2018-05-04T05:35:06.988Z,11.33
2018-05-04T05:37:35.645Z,12.90
2018-05-04T05:40:04.970Z,18.00
2018-05-04T05:42:33.598Z,15.93
2018-05-04T05:45:02.057Z,13.77
2018-05-04T05:47:31.544Z,15.50
2018-05-04T05:50:00.293Z,11.80
2018-05-04T05:52:28.808Z,13.20
2018-05-04T05:54:57.548Z,15.23
2018-05-04T05:57:26.322Z,13.33
2018-05-04T05:59:55.057Z,13.52
2018-05-04T06:02:24.272Z,19.13
2018-05-04T06:04:53.760Z,15.77
2018-05-04T06:07:22.979Z,17.43
2018-05-04T06:09:51.551Z,11.13
2018-05-04T06:12:19.817Z,11.97
2018-05-04T06:14:48.980Z,12.47
2018-05-04T06:17:17.516Z,15.20
2018-05-04T06:19:46.014Z,12.63
2018-05-04T06:22:14.559Z,13.43
2018-05-04T06:24:43.997Z,12.97
2018-05-04T06:27:12.581Z,14.40
2018-05-04T06:29:41.047Z,11.13
2018-05-04T06:32:10.068Z,11.10
2018-05-04T06:34:38.779Z,15.67
2018-05-04T06:37:07.512Z,15.30
2018-05-04T06:39:36.319Z,13.60
2018-05-04T06:42:04.809Z,14.33
2018-05-04T06:44:33.253Z,11.70
2018-05-04T06:47:02.741Z,11.70
2018-05-04T06:49:31.953Z,12.07
2018-05-04T06:52:01.421Z,15.43
2018-05-04T06:54:29.853Z,10.90
2018-05-04T06:56:58.301Z,11.40
2018-05-04T06:59:26.849Z,15.17
2018-05-04T07:01:55.445Z,16.20
2018-05-04T07:04:24.039Z,15.83
2018-05-04T07:06:52.524Z,18.00
2018-05-04T07:09:20.989Z,11.73
2018-05-04T07:11:49.652Z,16.73
2018-05-04T07:14:18.593Z,13.47
2018-05-04T07:16:47.035Z,11.77
2018-05-04T07:19:16.369Z,12.53
2018-05-04T07:21:44.829Z,11.20
2018-05-04T07:24:13.561Z,12.70
2018-05-04T07:26:42.053Z,15.10
2018-05-04T07:29:10.489Z,13.27
2018-05-04T07:31:39.249Z,12.93
2018-05-04T07:34:07.962Z,22.02
2018-05-04T07:36:36.780Z,16.35
2018-05-04T07:39:04.856Z,14.57
2018-05-04T07:41:32.964Z,12.37
2018-05-04T07:44:01.490Z,11.40
2018-05-04T07:46:30.094Z,17.13
2018-05-04T07:48:58.530Z,16.70
2018-05-04T07:51:27.266Z,16.42
2018-05-04T07:53:56.426Z,12.48
2018-05-04T07:56:37.242Z,12.63
2018-05-04T07:59:05.859Z,11.17
2018-05-04T08:01:34.301Z,10.43
2018-05-04T08:04:02.771Z,14.00
2018-05-04T08:06:31.533Z,13.80
2018-05-04T08:08:59.965Z,24.37
2018-05-04T08:11:28.681Z,12.87
2018-05-04T08:13:57.141Z,13.80
2018-05-04T08:16:26.677Z,12.10
2018-05-04T08:18:55.112Z,13.23
2018-05-04T08:21:23.633Z,13.70
2018-05-04T08:23:52.135Z,12.20
2018-05-04T08:26:20.581Z,13.80
2018-05-04T08:28:49.800Z,16.10
2018-05-04T08:31:19.284Z,13.67
2018-05-04T08:33:47.737Z,13.73
2018-05-04T08:36:16.176Z,19.37
2018-05-04T08:38:44.878Z,16.93
2018-05-04T08:41:14.314Z,18.90
2018-05-04T08:43:42.814Z,18.17
2018-05-04T08:46:11.430Z,15.30
2018-05-04T08:48:40.030Z,15.90
2018-05-04T08:51:08.785Z,16.42
2018-05-04T08:53:37.408Z,17.87
2018-05-04T08:56:06.144Z,17.73
2018-05-04T08:58:34.884Z,18.70
2018-05-04T09:01:03.338Z,16.87
2018-05-04T09:03:32.051Z,19.40
2018-05-04T09:06:01.534Z,22.23
2018-05-04T09:08:30.086Z,18.27
2018-05-04T09:10:58.540Z,18.70
2018-05-04T09:13:27.283Z,20.23
2018-05-04T09:15:55.744Z,22.73
2018-05-04T09:18:25.551Z,20.77
2018-05-04T09:20:53.989Z,19.93
2018-05-04T09:23:22.726Z,18.23
2018-05-04T09:25:51.179Z,22.40
2018-05-04T09:28:20.996Z,24.60
2018-05-04T09:30:49.502Z,22.83
2018-05-04T09:33:18.063Z,22.90
2018-05-04T09:35:47.566Z,26.15
2018-05-04T09:38:17.074Z,21.90
2018-05-04T09:40:45.508Z,18.80
2018-05-04T09:43:13.977Z,21.10
2018-05-04T09:45:42.827Z,27.43
2018-05-04T09:48:11.320Z,22.70
2018-05-04T09:50:39.899Z,19.60
2018-05-04T09:53:09.806Z,22.00
2018-05-04T09:55:38.264Z,31.43
2018-05-04T09:58:06.738Z,23.63
2018-05-04T10:00:35.554Z,25.20
2018-05-04T10:03:04.061Z,26.30
2018-05-04T10:05:32.509Z,24.47
2018-05-04T10:08:02.082Z,23.55
2018-05-04T10:10:30.465Z,25.30
2018-05-04T10:13:00.291Z,24.53
2018-05-04T10:15:28.751Z,27.43
2018-05-04T10:17:57.469Z,25.07
2018-05-04T10:20:27.077Z,24.98
2018-05-04T10:22:55.905Z,24.02
2018-05-04T10:25:24.622Z,23.23
2018-05-04T10:27:53.358Z,27.70
2018-05-04T10:30:21.917Z,25.23
2018-05-04T10:32:50.137Z,28.57
2018-05-04T10:35:19.677Z,26.50
2018-05-04T10:37:48.403Z,22.50
2018-05-04T10:40:16.873Z,25.80
2018-05-04T10:42:45.317Z,23.50
2018-05-04T10:45:13.894Z,22.53
2018-05-04T10:47:42.621Z,29.40
2018-05-04T10:50:11.075Z,20.60
2018-05-04T10:52:39.833Z,24.58
2018-05-04T10:55:08.634Z,21.00
2018-05-04T10:57:37.284Z,26.63
2018-05-04T11:00:05.053Z,23.40
2018-05-04T11:02:33.502Z,24.23
2018-05-04T11:05:02.277Z,34.43
2018-05-04T11:07:31.788Z,25.75
2018-05-04T11:10:00.532Z,22.75
2018-05-04T11:12:29.242Z,24.83
2018-05-04T11:14:57.680Z,23.63
2018-05-04T11:17:26.152Z,23.10
2018-05-04T11:19:54.599Z,21.90
2018-05-04T11:22:22.818Z,23.80
2018-05-04T11:24:51.560Z,21.02
2018-05-04T11:27:21.081Z,21.75
2018-05-04T11:29:49.792Z,24.08
2018-05-04T11:32:18.351Z,24.33
2018-05-04T11:34:46.786Z,24.10
2018-05-04T11:37:15.385Z,21.50
2018-05-04T11:39:43.837Z,19.33
2018-05-04T11:42:12.814Z,23.30
2018-05-04T11:44:42.037Z,26.03
2018-05-04T11:47:10.562Z,26.47
2018-05-04T11:49:39.394Z,24.75
2018-05-04T11:52:08.609Z,27.70
2018-05-04T11:54:37.214Z,21.40
2018-05-04T11:57:05.662Z,27.80
2018-05-04T11:59:34.381Z,26.67
2018-05-04T12:02:02.832Z,27.20
2018-05-04T12:04:32.316Z,23.65
2018-05-04T12:07:01.061Z,23.50
2018-05-04T12:09:29.575Z,24.70
2018-05-04T12:11:58.825Z,19.93
2018-05-04T12:14:27.281Z,28.80
2018-05-04T12:16:55.834Z,23.30
2018-05-04T12:19:24.340Z,24.43
2018-05-04T12:21:53.920Z,25.77
2018-05-04T12:24:22.413Z,26.80
2018-05-04T12:26:51.659Z,27.13
2018-05-04T12:29:20.399Z,29.35
2018-05-04T12:31:49.606Z,25.50
2018-05-04T12:34:18.065Z,25.33
2018-05-04T12:36:46.665Z,22.77
2018-05-04T12:39:15.416Z,22.53
2018-05-04T12:41:44.104Z,29.70
2018-05-04T12:44:12.646Z,28.43
2018-05-04T12:46:41.244Z,29.70
2018-05-04T12:49:09.816Z,23.30
2018-05-04T12:51:38.270Z,24.40
2018-05-04T12:54:06.703Z,25.40
2018-05-04T12:56:35.232Z,22.77
2018-05-04T12:59:04.224Z,21.92
2018-05-04T13:01:32.664Z,27.53
2018-05-04T13:04:01.914Z,21.50
2018-05-04T13:06:30.660Z,22.87
2018-05-04T13:08:59.396Z,22.23
2018-05-04T13:11:28.157Z,22.80
2018-05-04T13:13:56.373Z,23.67
2018-05-04T13:16:24.765Z,20.90
2018-05-04T13:18:53.492Z,19.53
2018-05-04T13:21:22.693Z,20.30
2018-05-04T13:23:51.139Z,18.25
2018-05-04T13:26:20.396Z,18.77
2018-05-04T13:28:49.093Z,20.03
2018-05-04T13:31:17.949Z,26.03
2018-05-04T13:33:46.385Z,28.40
2018-05-04T13:36:15.115Z,21.67
2018-05-04T13:38:44.076Z,19.75
2018-05-04T13:41:13.397Z,20.13
2018-05-04T13:43:42.389Z,21.87
2018-05-04T13:46:11.594Z,19.00
2018-05-04T13:48:40.828Z,19.27
2018-05-04T13:51:09.494Z,18.80
2018-05-04T13:53:38.385Z,20.30
2018-05-04T13:56:06.493Z,17.90
2018-05-04T13:58:34.709Z,22.23
2018-05-04T14:01:03.200Z,18.80
2018-05-04T14:03:32.353Z,20.37
2018-05-04T14:06:00.569Z,22.17
2018-05-04T14:08:29.273Z,19.57
2018-05-04T14:10:57.763Z,19.90
2018-05-04T14:13:26.488Z,21.07
2018-05-04T14:15:55.231Z,16.17
2018-05-04T14:18:23.968Z,21.08
2018-05-04T14:20:53.166Z,21.20
2018-05-04T14:23:22.388Z,19.17
2018-05-04T14:25:51.887Z,19.00
2018-05-04T14:28:20.116Z,20.60
2018-05-04T14:30:48.840Z,17.57
2018-05-04T14:33:18.050Z,17.53
2018-05-04T14:35:46.536Z,18.23
2018-05-04T14:38:16.020Z,17.00
2018-05-04T14:40:45.128Z,14.05
2018-05-04T14:43:13.571Z,14.67
2018-05-04T14:45:42.244Z,18.77
2018-05-04T14:48:10.679Z,18.63
2018-05-04T14:50:40.110Z,18.23
2018-05-04T14:53:08.315Z,19.27
2018-05-04T14:55:36.529Z,19.47
2018-05-04T14:58:04.983Z,16.87
2018-05-04T15:00:33.980Z,18.73
2018-05-04T15:03:02.638Z,22.23
2018-05-04T15:05:31.597Z,15.95
2018-05-04T15:08:00.071Z,16.53
2018-05-04T15:10:28.516Z,18.77
2018-05-04T15:12:56.959Z,16.80
2018-05-04T15:15:25.694Z,16.15
2018-05-04T15:17:54.251Z,16.27
2018-05-04T15:20:23.885Z,18.23
2018-05-04T15:22:52.526Z,17.50
2018-05-04T15:25:22.084Z,16.75
2018-05-04T15:27:50.669Z,18.13
2018-05-04T15:30:19.113Z,17.30
2018-05-04T15:32:48.337Z,15.68
2018-05-04T15:35:16.433Z,16.83
2018-05-04T15:37:44.885Z,14.77
2018-05-04T15:40:14.687Z,15.30
2018-05-04T15:42:43.491Z,11.90
2018-05-04T15:45:11.921Z,15.93
2018-05-04T15:47:40.657Z,14.80
2018-05-04T15:50:15.555Z,18.17
2018-05-04T15:52:44.784Z,13.90
2018-05-04T15:55:13.280Z,13.67
2018-05-04T15:57:42.052Z,15.43
2018-05-04T16:00:10.640Z,14.67
2018-05-04T16:02:39.404Z,14.93
2018-05-04T16:05:08.808Z,15.77
2018-05-04T16:07:37.428Z,14.87
2018-05-04T16:10:06.192Z,15.27
2018-05-04T16:12:34.627Z,21.27
2018-05-04T16:15:03.840Z,15.60
2018-05-04T16:17:32.623Z,28.40
2018-05-04T16:20:01.867Z,18.97
2018-05-04T16:22:30.627Z,16.93
2018-05-04T16:24:59.198Z,14.40
2018-05-04T16:27:27.926Z,12.43
2018-05-04T16:29:56.380Z,16.80
2018-05-04T16:32:25.885Z,16.70
2018-05-04T16:34:55.321Z,14.90
2018-05-04T16:37:23.795Z,17.40
2018-05-04T16:39:52.361Z,14.60
2018-05-04T16:42:20.793Z,15.93
2018-05-04T16:44:50.035Z,21.90
2018-05-04T16:47:22.001Z,17.63
2018-05-04T16:49:50.470Z,13.00
2018-05-04T16:52:19.225Z,15.43
2018-05-04T16:54:48.201Z,16.00
2018-05-04T16:57:17.407Z,17.60
2018-05-04T16:59:45.604Z,12.80
2018-05-04T17:02:15.055Z,14.23
2018-05-04T17:04:44.725Z,18.35
2018-05-04T17:07:12.949Z,14.47
2018-05-04T17:09:41.373Z,17.97
2018-05-04T17:12:09.673Z,18.40
2018-05-04T17:14:37.888Z,16.50
2018-05-04T17:17:06.417Z,18.55
2018-05-04T17:19:34.800Z,17.30
2018-05-04T17:22:03.114Z,21.97
2018-05-04T17:24:31.746Z,18.57
2018-05-04T17:27:00.540Z,22.77
2018-05-04T17:29:28.862Z,18.40
2018-05-04T17:31:57.622Z,18.33
2018-05-04T17:34:26.343Z,18.75
2018-05-04T17:36:54.545Z,17.30
2018-05-04T17:39:23.973Z,20.30
2018-05-04T17:41:52.596Z,24.73
2018-05-04T17:44:22.097Z,16.10
2018-05-04T17:46:50.582Z,20.40
2018-05-04T17:49:19.104Z,18.17
2018-05-04T17:51:47.832Z,20.90
2018-05-04T17:54:17.029Z,15.80
2018-05-04T17:56:45.861Z,21.77
2018-05-04T17:59:14.582Z,20.62
2018-05-04T18:01:43.331Z,18.77
2018-05-04T18:04:11.896Z,17.90
2018-05-04T18:06:40.455Z,19.57
2018-05-04T18:09:09.219Z,17.83
2018-05-04T18:11:37.888Z,19.83
2018-05-04T18:14:06.359Z,20.67
2018-05-04T18:16:35.084Z,20.20
2018-05-04T18:19:03.497Z,20.80
2018-05-04T18:21:32.034Z,20.77
2018-05-04T18:24:00.671Z,21.17
2018-05-04T18:26:29.278Z,22.20
2018-05-04T18:28:57.714Z,24.90
2018-05-04T18:31:26.165Z,22.60
2018-05-04T18:33:54.918Z,24.60
2018-05-04T18:36:23.369Z,23.67
2018-05-04T18:38:52.585Z,21.57
2018-05-04T18:41:21.185Z,24.00
2018-05-04T18:43:49.693Z,22.77
2018-05-04T18:46:18.411Z,21.10
2018-05-04T18:48:46.873Z,22.00
2018-05-04T18:51:15.581Z,21.57
2018-05-04T18:53:44.029Z,22.33
2018-05-04T18:56:12.798Z,22.37
2018-05-04T18:58:42.760Z,21.33
2018-05-04T19:01:13.143Z,27.83
2018-05-04T19:03:41.659Z,23.03
2018-05-04T19:06:10.188Z,22.77
2018-05-04T19:08:39.958Z,21.02
2018-05-04T19:11:09.738Z,28.60
2018-05-04T19:13:38.451Z,28.52
2018-05-04T19:16:07.017Z,32.43
2018-05-04T19:18:35.742Z,30.30
2018-05-04T19:21:04.965Z,26.93
2018-05-04T19:23:34.244Z,28.60
2018-05-04T19:26:02.736Z,24.30
2018-05-04T19:28:32.042Z,23.45
2018-05-04T19:31:00.485Z,29.43
2018-05-04T19:33:29.706Z,23.23
2018-05-04T19:35:58.548Z,24.87
2018-05-04T19:38:27.183Z,25.83
2018-05-04T19:40:55.917Z,24.52
2018-05-04T19:43:24.391Z,22.83
2018-05-04T19:45:53.001Z,22.33
2018-05-04T19:48:22.244Z,23.20
2018-05-04T19:50:50.961Z,28.87
2018-05-04T19:53:19.685Z,21.85
2018-05-04T19:55:48.899Z,25.10
2018-05-04T19:58:17.573Z,24.70
2018-05-04T20:00:46.301Z,24.03
2018-05-04T20:03:14.967Z,27.83
2018-05-04T20:05:43.665Z,27.60
2018-05-04T20:08:12.209Z,25.20
2018-05-04T20:10:41.417Z,24.53
2018-05-04T20:13:10.161Z,26.67
2018-05-04T20:15:38.601Z,23.57
2018-05-04T20:18:07.297Z,24.10
2018-05-04T20:20:35.744Z,27.73
2018-05-04T20:23:04.571Z,23.15
2018-05-04T20:25:33.630Z,25.67
2018-05-04T20:28:02.077Z,24.17
2018-05-04T20:30:30.804Z,30.27
2018-05-04T20:32:59.400Z,27.53
2018-05-04T20:35:29.392Z,26.60
2018-05-04T20:37:58.111Z,25.08
2018-05-04T20:40:26.620Z,29.17
2018-05-04T20:42:55.073Z,28.20
2018-05-04T20:45:24.440Z,29.90
2018-05-04T20:47:53.147Z,29.13
2018-05-04T20:50:22.636Z,25.67
2018-05-04T20:52:51.300Z,29.90
2018-05-04T20:55:20.528Z,30.80
2018-05-04T20:57:49.682Z,28.47
2018-05-04T21:00:18.142Z,29.47
2018-05-04T21:02:46.598Z,26.23
2018-05-04T21:05:15.028Z,27.33
2018-05-04T21:07:43.762Z,27.35
2018-05-04T21:10:12.358Z,28.03
2018-05-04T21:12:40.984Z,33.50
2018-05-04T21:15:10.214Z,35.50
2018-05-04T21:17:39.800Z,29.93
2018-05-04T21:20:08.484Z,33.27
2018-05-04T21:22:37.074Z,31.27
2018-05-04T21:25:05.961Z,26.62
2018-05-04T21:27:34.412Z,32.13
2018-05-04T21:30:02.951Z,30.83
2018-05-04T21:32:31.707Z,32.23
2018-05-04T21:35:00.156Z,30.77
2018-05-04T21:37:28.882Z,28.33
2018-05-04T21:39:57.350Z,26.07
2018-05-04T21:42:25.841Z,33.47
2018-05-04T21:44:54.285Z,29.40
2018-05-04T21:47:23.484Z,29.60
2018-05-04T21:49:52.269Z,36.07
2018-05-04T21:52:20.476Z,33.17
2018-05-04T21:54:49.029Z,35.83
2018-05-04T21:57:17.780Z,35.80
2018-05-04T21:59:46.219Z,37.63
2018-05-04T22:02:14.677Z,29.33
2018-05-04T22:04:43.883Z,33.07
2018-05-04T22:07:12.343Z,34.20
2018-05-04T22:09:41.045Z,34.92
2018-05-04T22:12:10.272Z,30.07
2018-05-04T22:14:38.836Z,30.47
2018-05-04T22:17:07.217Z,34.13
2018-05-04T22:19:35.560Z,38.90
2018-05-04T22:22:04.297Z,34.67
2018-05-04T22:24:32.832Z,32.40
2018-05-04T22:27:01.542Z,38.47
2018-05-04T22:29:30.207Z,30.20
2018-05-04T22:31:59.501Z,30.90
2018-05-04T22:34:28.710Z,32.03
2018-05-04T22:36:57.472Z,37.37
2018-05-04T22:39:26.216Z,29.87
2018-05-04T22:41:54.665Z,32.07
2018-05-04T22:44:23.393Z,34.67
2018-05-04T22:46:51.827Z,31.30
2018-05-04T22:49:20.647Z,31.05
2018-05-04T22:51:50.140Z,35.23
2018-05-04T22:54:18.717Z,31.60
2018-05-04T22:56:48.220Z,28.90
2018-05-04T22:59:16.675Z,30.07
2018-05-04T23:01:45.888Z,28.37
2018-05-04T23:04:15.130Z,30.07
2018-05-04T23:06:43.332Z,30.83
2018-05-04T23:09:12.183Z,34.92
2018-05-04T23:11:40.965Z,28.98
2018-05-04T23:14:10.453Z,23.67
2018-05-04T23:16:38.909Z,22.87
2018-05-04T23:19:08.117Z,21.13
2018-05-04T23:21:36.833Z,30.73
2018-05-04T23:24:05.309Z,21.67
2018-05-04T23:26:33.770Z,21.03
2018-05-04T23:29:02.370Z,18.30
2018-05-04T23:31:30.841Z,17.33
2018-05-04T23:33:59.321Z,17.80
2018-05-04T23:36:27.789Z,16.57
2018-05-04T23:38:56.986Z,14.20
2018-05-04T23:41:25.709Z,18.05
2018-05-04T23:43:54.169Z,14.87
2018-05-04T23:46:22.801Z,13.13
2018-05-04T23:48:51.261Z,15.10
2018-05-04T23:51:20.605Z,19.25
2018-05-04T23:53:50.127Z,12.73
2018-05-04T23:56:18.643Z,12.33
2018-05-04T23:58:46.877Z,12.40
